createdAt,value
2022-08-16T00:04:34.768Z,46.91
2022-08-16T00:09:27.256Z,46.58
2022-08-16T00:14:19.917Z,46.77
2022-08-16T00:19:13.507Z,46.73
2022-08-16T00:24:05.119Z,46.56
2022-08-16T00:28:57.259Z,47.17
2022-08-16T00:33:50.080Z,47.2
2022-08-16T00:38:43.446Z,47.35
2022-08-16T00:43:41.034Z,47.17
2022-08-16T00:48:28.882Z,47.25
2022-08-16T00:53:20.085Z,46.72
2022-08-16T00:58:16.307Z,46.55
2022-08-16T01:03:05.315Z,46.57
2022-08-16T01:07:58.607Z,46.6
2022-08-16T01:12:50.357Z,46.62
2022-08-16T01:17:42.562Z,46.49
2022-08-16T01:22:47.350Z,45.68
2022-08-16T01:27:27.851Z,46.1
2022-08-16T01:32:27.489Z,46.33
2022-08-16T01:37:12.208Z,46.42
2022-08-16T01:42:04.694Z,46.63
2022-08-16T01:46:57.178Z,46.53
2022-08-16T01:51:49.729Z,46.65
2022-08-16T01:56:42.299Z,46.22
2022-08-16T02:01:34.698Z,46.37
2022-08-16T02:06:34.118Z,46.35
2022-08-16T02:11:19.785Z,46.15
2022-08-16T02:16:18.663Z,45.96
2022-08-16T02:21:04.703Z,46.42
2022-08-16T02:25:57.448Z,46.09
2022-08-16T02:30:51.911Z,46.19
2022-08-16T02:35:49.613Z,45.74
2022-08-16T02:40:34.933Z,45.24
2022-08-16T02:45:27.937Z,45.67
2022-08-16T02:50:52.356Z,45.81
2022-08-16T02:55:12.121Z,45.68
2022-08-16T03:00:32.218Z,45.47
2022-08-16T03:04:57.676Z,45.85
2022-08-16T03:09:49.956Z,45.99
2022-08-16T03:14:42.564Z,45.78
2022-08-16T03:19:48.910Z,45.67
2022-08-16T03:24:29.471Z,45.08
2022-08-16T03:29:20.461Z,45.36
2022-08-16T03:34:13.124Z,45.34
2022-08-16T03:39:05.399Z,45.2
2022-08-16T03:43:58.166Z,44.83
2022-08-16T03:48:50.567Z,44.86
2022-08-16T03:53:42.822Z,44.73
2022-08-16T03:58:35.182Z,45.98
2022-08-16T04:03:27.059Z,45.78
2022-08-16T04:08:22.661Z,46.52
2022-08-16T04:13:20.545Z,46.91
2022-08-16T04:18:03.855Z,47.1
2022-08-16T04:22:56.689Z,46.44
2022-08-16T04:27:54.081Z,47.55
2022-08-16T04:32:40.877Z,47.46
2022-08-16T04:37:33.385Z,46.87
2022-08-16T04:42:29.565Z,46.94
2022-08-16T04:47:21.328Z,47.1
2022-08-16T04:52:33.000Z,48.01
2022-08-16T04:57:03.766Z,47.8
2022-08-16T05:01:59.104Z,48.52
2022-08-16T05:06:48.671Z,50.49
2022-08-16T05:11:40.861Z,50
2022-08-16T05:16:33.782Z,50.12
2022-08-16T05:21:26.951Z,48.79
2022-08-16T05:26:19.726Z,48.47
2022-08-16T05:36:04.241Z,49.31
2022-08-16T05:45:50.859Z,48.32
2022-08-16T05:55:35.109Z,47.93
2022-08-16T06:00:26.760Z,48.42
2022-08-16T06:05:19.124Z,48.34
2022-08-16T06:10:11.411Z,48
2022-08-16T06:15:07.935Z,46.97
2022-08-16T06:19:57.345Z,46.85
2022-08-16T06:24:52.956Z,46.67
2022-08-16T06:29:42.620Z,46.66
2022-08-16T06:34:56.333Z,46.72
2022-08-16T06:39:27.791Z,46.75
2022-08-16T06:44:20.590Z,46.73
2022-08-16T06:49:13.020Z,46.74
2022-08-16T06:54:05.410Z,46.74
2022-08-16T06:58:57.535Z,46.64
2022-08-16T07:03:54.846Z,46.63
2022-08-16T07:08:42.888Z,46.7
2022-08-16T07:18:28.242Z,46.78
2022-08-16T07:23:37.119Z,46.75
2022-08-16T07:28:20.389Z,46.74
2022-08-16T07:33:06.976Z,46.74
2022-08-16T07:37:59.352Z,46.9
2022-08-16T07:42:51.923Z,46.88
2022-08-16T07:47:44.796Z,47.08
2022-08-16T07:52:39.684Z,47.03
2022-08-16T07:57:30.254Z,46.88
2022-08-16T08:02:22.906Z,46.92
2022-08-16T08:07:16.090Z,47.06
2022-08-16T08:12:07.990Z,47.17
2022-08-16T08:17:01.436Z,47.1
2022-08-16T08:21:58.672Z,47.23
2022-08-16T08:26:49.976Z,47.13
2022-08-16T08:31:38.784Z,46.92
2022-08-16T08:36:32.869Z,46.95
2022-08-16T08:41:27.748Z,46.92
2022-08-16T08:46:18.487Z,46.67
2022-08-16T08:51:10.280Z,46.63
2022-08-16T08:56:22.648Z,46.72
2022-08-16T09:00:55.234Z,46.51
2022-08-16T09:05:51.319Z,46.55
2022-08-16T09:10:40.756Z,46.58
2022-08-16T09:15:33.553Z,46.59
2022-08-16T09:20:25.841Z,46.52
2022-08-16T09:25:20.676Z,46.45
2022-08-16T09:30:31.643Z,46.41
2022-08-16T09:35:03.227Z,46.29
2022-08-16T09:39:56.043Z,46.33
2022-08-16T09:45:10.263Z,46.29
2022-08-16T09:49:41.433Z,46.51
2022-08-16T09:54:33.983Z,46.7
2022-08-16T09:59:30.427Z,46.4
2022-08-16T10:04:29.011Z,46.44
2022-08-16T10:09:11.322Z,46.16
2022-08-16T10:14:03.838Z,48.79
2022-08-16T10:19:01.150Z,50.21
2022-08-16T10:23:49.271Z,46.16
2022-08-16T10:28:42.269Z,46.18
2022-08-16T10:33:34.770Z,47.72
2022-08-16T10:38:28.215Z,47.09
2022-08-16T10:43:20.076Z,45.4
2022-08-16T10:48:24.081Z,44.64
2022-08-16T10:53:04.978Z,44.71
2022-08-16T10:57:57.599Z,44.69
2022-08-16T11:03:37.815Z,44
2022-08-16T11:07:43.187Z,43.94
2022-08-16T11:12:35.412Z,44.08
2022-08-16T11:17:27.955Z,43.88
2022-08-16T11:22:23.535Z,43.87
2022-08-16T11:27:23.111Z,43.22
2022-08-16T11:32:05.981Z,42.93
2022-08-16T11:36:59.836Z,42.59
2022-08-16T11:41:51.557Z,42.62
2022-08-16T11:46:46.639Z,42.44
2022-08-16T11:51:36.455Z,41.9
2022-08-16T11:56:29.955Z,42.69
2022-08-16T12:01:29.478Z,42.59
2022-08-16T12:06:24.767Z,42.34
2022-08-16T12:11:07.047Z,42.08
2022-08-16T12:15:59.494Z,42.23
2022-08-16T12:20:52.048Z,41.85
2022-08-16T12:30:38.697Z,41.99
2022-08-16T12:40:24.246Z,41.84
2022-08-16T12:50:07.409Z,41.55
2022-08-16T12:54:59.975Z,41.37
2022-08-16T12:59:53.884Z,41.54
2022-08-16T13:09:42.198Z,41.6
2022-08-16T13:14:32.987Z,41.35
2022-08-16T13:19:23.300Z,41.29
2022-08-16T13:24:15.938Z,41.19
2022-08-16T13:29:08.392Z,40.92
2022-08-16T13:34:00.761Z,40.88
2022-08-16T13:38:53.021Z,40.89
2022-08-16T13:43:45.581Z,40.87
2022-08-16T13:48:43.161Z,40.78
2022-08-16T13:53:31.089Z,40.47
2022-08-16T13:58:35.963Z,40.37
2022-08-16T14:03:18.245Z,40.42
2022-08-16T14:08:09.092Z,40.34
2022-08-16T14:13:01.785Z,40.05
2022-08-16T14:18:16.230Z,40.08
2022-08-16T14:22:52.315Z,39.93
2022-08-16T14:27:42.065Z,39.96
2022-08-16T14:32:34.555Z,40.02
2022-08-16T14:37:25.387Z,40.05
2022-08-16T14:42:18.142Z,40.06
2022-08-16T14:47:10.809Z,40.15
2022-08-16T14:52:03.279Z,40.04
2022-08-16T14:56:55.734Z,39.98
2022-08-16T15:01:58.454Z,39.97
2022-08-16T15:06:41.221Z,40.04
2022-08-16T15:11:33.820Z,39.98
2022-08-16T15:16:29.044Z,40.03
2022-08-16T15:21:19.117Z,40.09
2022-08-16T15:26:13.720Z,40.14
2022-08-16T15:31:06.146Z,40.09
2022-08-16T15:35:58.010Z,40.2
2022-08-16T15:40:52.109Z,40.03
2022-08-16T15:45:43.362Z,40.38
2022-08-16T15:50:34.939Z,40.42
2022-08-16T15:55:29.620Z,40.5
2022-08-16T16:00:20.082Z,40.14
2022-08-16T16:05:12.905Z,39.69
2022-08-16T16:10:05.556Z,40.17
2022-08-16T16:14:58.274Z,40.67
2022-08-16T16:19:53.546Z,40.87
2022-08-16T16:24:43.351Z,40.78
2022-08-16T16:29:37.050Z,40.36
2022-08-16T16:34:32.164Z,40.51
2022-08-16T16:39:21.791Z,40.29
2022-08-16T16:44:18.089Z,40.23
2022-08-16T16:49:07.077Z,40.22
2022-08-16T16:53:55.957Z,40.27
2022-08-16T16:58:53.234Z,40.03
2022-08-16T17:03:41.246Z,40.37
2022-08-16T17:08:34.013Z,40.01
2022-08-16T17:13:26.311Z,39.79
2022-08-16T17:19:15.875Z,40.06
2022-08-16T17:23:11.687Z,40.02
2022-08-16T17:28:57.900Z,39.98
2022-08-16T17:32:56.889Z,40.11
2022-08-16T17:37:51.317Z,40
2022-08-16T17:42:46.103Z,40.1
2022-08-16T17:47:34.869Z,40.23
2022-08-16T17:52:27.412Z,40.39
2022-08-16T17:57:19.994Z,40.48
2022-08-16T18:02:14.380Z,40.68
2022-08-16T18:07:04.917Z,40.56
2022-08-16T18:11:57.656Z,40.79
2022-08-16T18:16:50.493Z,40.68
2022-08-16T18:21:43.023Z,40.74
2022-08-16T18:26:35.628Z,40.82
2022-08-16T18:36:20.275Z,39.47
2022-08-16T18:46:02.820Z,39.22
2022-08-16T18:50:58.590Z,39.13
2022-08-16T18:55:48.248Z,39.38
2022-08-16T19:00:45.889Z,39.06
2022-08-16T19:05:33.364Z,39.27
2022-08-16T19:10:25.561Z,39.65
2022-08-16T19:15:18.228Z,39.6
2022-08-16T19:20:11.314Z,39.89
2022-08-16T19:25:03.409Z,39.73
2022-08-16T19:29:56.141Z,39.52
2022-08-16T19:34:48.664Z,39.51
2022-08-16T19:39:41.256Z,39.74
2022-08-16T19:44:33.860Z,40.54
2022-08-16T19:49:26.333Z,40.36
2022-08-16T19:54:18.913Z,40.12
2022-08-16T19:59:20.814Z,40.03
2022-08-16T20:04:04.127Z,39.91
2022-08-16T20:08:56.679Z,40.53
2022-08-16T20:13:49.210Z,40.42
2022-08-16T20:18:41.804Z,39.99
2022-08-16T20:23:34.890Z,39.81
2022-08-16T20:28:39.602Z,39.7
2022-08-16T20:33:19.547Z,39.73
2022-08-16T20:38:11.972Z,39.42
2022-08-16T20:43:04.423Z,39.22
2022-08-16T20:47:56.945Z,39.17
2022-08-16T20:52:50.106Z,39.36
2022-08-16T20:57:42.581Z,39.16
2022-08-16T21:02:35.239Z,39.33
2022-08-16T21:07:27.927Z,39.32
2022-08-16T21:12:20.383Z,39.38
2022-08-16T21:17:13.108Z,39.31
2022-08-16T21:22:05.568Z,39.25
2022-08-16T21:26:58.264Z,39.31
2022-08-16T21:31:50.928Z,39.2
2022-08-16T21:36:43.392Z,39.22
2022-08-16T21:41:35.954Z,39.21
2022-08-16T21:46:28.141Z,39.16
2022-08-16T21:51:21.053Z,39.18
2022-08-16T21:56:17.036Z,39.22
2022-08-16T22:01:06.263Z,39.21
2022-08-16T22:06:00.192Z,39.28
2022-08-16T22:11:05.438Z,39.03
2022-08-16T22:15:43.315Z,39.16
2022-08-16T22:20:35.890Z,39.23
2022-08-16T22:25:28.658Z,39.29
2022-08-16T22:30:21.228Z,39.36
2022-08-16T22:35:14.268Z,39.34
2022-08-16T22:40:06.384Z,39.35
2022-08-16T22:44:59.092Z,39.39
2022-08-16T22:49:51.857Z,39.27
2022-08-16T22:54:48.347Z,39.38
2022-08-16T22:59:37.016Z,39.4
2022-08-16T23:04:29.886Z,39.35
2022-08-16T23:09:22.348Z,39.51
2022-08-16T23:14:14.894Z,39.48
2022-08-16T23:19:07.643Z,39.42
2022-08-16T23:24:00.170Z,39.45
2022-08-16T23:28:52.657Z,39.46
2022-08-16T23:33:45.365Z,39.5
2022-08-16T23:38:39.329Z,39.64
2022-08-16T23:43:30.696Z,39.62
2022-08-16T23:48:23.169Z,39.53
2022-08-16T23:53:15.890Z,39.62
2022-08-16T23:58:08.585Z,39.67
